Time;durP1;ratioP1;P1;durP2;ratioP2;P2;SDS_P1;SDS_P2;PMS_P1;PMS_P2;Temp;Humidity;BMP_temperature;BMP_pressure;BME280_temperature;BME280_humidity;BME280_pressure;Samples;Min_cycle;Max_cycle;Signal;HPM_P1;HPM_P2
2022/06/30 00:01:08;;;;;;;5.68;2.67;;;;;;;17.64;100.00;95598.41;5008480;28;24440;-70
2022/06/30 00:03:34;;;;;;;6.90;2.23;;;;;;;17.66;100.00;95605.16;5015908;28;24518;-70
2022/06/30 00:06:01;;;;;;;4.60;2.45;;;;;;;17.66;100.00;95606.97;5007645;28;24528;-71
2022/06/30 00:08:28;;;;;;;5.32;2.67;;;;;;;17.71;100.00;95590.81;5006968;28;24510;-70
2022/06/30 00:10:54;;;;;;;3.55;2.50;;;;;;;17.69;100.00;95601.44;5019960;28;25039;-71
2022/06/30 00:13:22;;;;;;;3.30;2.22;;;;;;;17.73;100.00;95601.97;5014225;28;24443;-71
2022/06/30 00:15:49;;;;;;;2.92;2.00;;;;;;;17.75;100.00;95602.66;5005539;28;24433;-70
2022/06/30 00:18:16;;;;;;;5.53;2.70;;;;;;;17.77;100.00;95600.75;5005301;28;24440;-70
2022/06/30 00:20:42;;;;;;;4.72;2.10;;;;;;;17.75;100.00;95595.63;5011610;28;24436;-70
2022/06/30 00:23:08;;;;;;;4.40;2.10;;;;;;;17.77;100.00;95593.72;5014425;28;24436;-71
2022/06/30 00:25:35;;;;;;;3.80;2.00;;;;;;;17.79;100.00;95593.56;5006825;28;24449;-71
2022/06/30 00:28:01;;;;;;;2.58;2.15;;;;;;;17.81;100.00;95589.00;5003990;28;24457;-70
2022/06/30 00:30:29;;;;;;;3.28;2.08;;;;;;;17.80;100.00;95595.22;5002999;28;24463;-71
2022/06/30 00:32:56;;;;;;;2.93;2.00;;;;;;;17.83;100.00;95594.91;5014809;28;24471;-71
2022/06/30 00:35:22;;;;;;;3.10;2.15;;;;;;;17.84;100.00;95592.16;5007263;28;24437;-71
2022/06/30 00:37:49;;;;;;;9.68;2.35;;;;;;;17.84;100.00;95596.59;5002554;28;24487;-71
2022/06/30 00:40:15;;;;;;;2.27;2.00;;;;;;;17.82;100.00;95593.28;5009623;28;24803;-71
2022/06/30 00:42:42;;;;;;;2.88;2.22;;;;;;;17.76;100.00;95591.22;5011252;28;24444;-71
2022/06/30 00:45:09;;;;;;;5.35;2.55;;;;;;;17.80;100.00;95582.94;5008477;28;24447;-70
2022/06/30 00:47:37;;;;;;;4.18;2.70;;;;;;;17.64;100.00;95582.69;5006247;28;24444;-71
2022/06/30 00:50:05;;;;;;;4.57;2.30;;;;;;;17.53;100.00;95583.69;5009304;28;25002;-71
2022/06/30 00:52:35;;;;;;;5.70;2.65;;;;;;;17.39;100.00;95581.53;5010800;28;24506;-70
2022/06/30 00:55:03;;;;;;;4.03;2.65;;;;;;;17.32;100.00;95576.06;5017122;28;24432;-70
2022/06/30 00:57:31;;;;;;;7.82;2.70;;;;;;;17.31;100.00;95578.81;5000835;28;24448;-70
2022/06/30 00:59:58;;;;;;;5.03;2.80;;;;;;;17.33;100.00;95582.13;5005810;28;24436;-71
2022/06/30 01:02:26;;;;;;;3.17;2.50;;;;;;;17.31;100.00;95584.88;5011262;28;24444;-71
2022/06/30 01:04:56;;;;;;;4.55;2.60;;;;;;;17.27;100.00;95582.69;5016973;28;24985;-71
2022/06/30 01:07:23;;;;;;;2.72;2.42;;;;;;;17.20;100.00;95576.38;5002187;28;24444;-71
2022/06/30 01:12:43;;;;;;;5.88;2.53;;;;;;;17.14;100.00;95569.91;4996866;28;21301;-71
2022/06/30 01:15:11;;;;;;;4.15;2.38;;;;;;;17.12;100.00;95566.59;5009536;28;24460;-71
2022/06/30 01:17:37;;;;;;;2.83;2.00;;;;;;;17.15;100.00;95580.22;5010063;28;24490;-71
2022/06/30 01:20:06;;;;;;;3.47;2.50;;;;;;;17.22;100.00;95575.28;5010197;28;24432;-70
2022/06/30 01:22:34;;;;;;;3.85;2.70;;;;;;;17.25;100.00;95584.63;5007402;28;24535;-71
2022/06/30 01:25:01;;;;;;;4.22;2.05;;;;;;;17.27;100.00;95575.66;5010122;28;25051;-70
2022/06/30 01:27:27;;;;;;;4.25;2.25;;;;;;;17.28;100.00;95576.47;5010361;28;24895;-70
2022/06/30 01:29:54;;;;;;;3.97;2.17;;;;;;;17.34;100.00;95575.91;5010464;28;24456;-70
2022/06/30 01:32:21;;;;;;;2.87;2.30;;;;;;;17.29;100.00;95578.97;5012156;28;24514;-70
2022/06/30 01:34:47;;;;;;;3.90;2.28;;;;;;;17.27;100.00;95570.41;5010458;28;24436;-71
2022/06/30 01:37:14;;;;;;;2.80;1.88;;;;;;;17.31;100.00;95569.16;5013128;28;24996;-71
2022/06/30 01:39:42;;;;;;;4.30;2.45;;;;;;;17.31;100.00;95574.41;5012262;28;24561;-71
2022/06/30 01:42:09;;;;;;;3.78;2.38;;;;;;;17.25;100.00;95567.13;5017491;28;24515;-71
2022/06/30 01:44:36;;;;;;;3.85;2.38;;;;;;;17.25;100.00;95569.75;5012183;28;24531;-70
2022/06/30 01:47:02;;;;;;;3.53;2.35;;;;;;;17.24;100.00;95560.22;5010341;28;24486;-70
2022/06/30 01:49:29;;;;;;;5.03;2.75;;;;;;;17.23;100.00;95558.59;5001235;28;24432;-71
2022/06/30 01:51:55;;;;;;;3.97;2.10;;;;;;;17.20;100.00;95560.66;5005681;28;24467;-71
2022/06/30 01:54:23;;;;;;;2.40;1.95;;;;;;;17.16;100.00;95554.88;5008673;28;24436;-71
2022/06/30 01:56:51;;;;;;;2.97;2.30;;;;;;;17.15;100.00;95554.06;5009743;28;24443;-71
2022/06/30 01:59:18;;;;;;;4.72;2.10;;;;;;;17.02;100.00;95550.94;5003586;28;24842;-70
2022/06/30 02:01:44;;;;;;;4.10;2.25;;;;;;;16.88;100.00;95556.63;5016061;28;24437;-70
2022/06/30 02:06:54;;;;;;;3.40;2.30;;;;;;;16.72;100.00;95557.13;4998026;28;24436;-70
2022/06/30 02:09:21;;;;;;;2.20;1.90;;;;;;;16.80;100.00;95557.31;5003270;28;24439;-70
2022/06/30 02:11:47;;;;;;;2.70;2.20;;;;;;;16.83;100.00;95548.34;5003662;28;24457;-70
2022/06/30 02:14:15;;;;;;;4.13;2.20;;;;;;;16.82;100.00;95544.91;5009436;28;24436;-70
2022/06/30 02:16:42;;;;;;;2.78;2.05;;;;;;;16.73;100.00;95553.56;5013229;28;24487;-71
2022/06/30 02:19:08;;;;;;;3.53;2.23;;;;;;;16.70;100.00;95554.66;5013049;28;24520;-71
2022/06/30 02:21:35;;;;;;;2.22;2.03;;;;;;;16.69;100.00;95552.19;5006624;28;24452;-71
2022/06/30 02:24:01;;;;;;;2.92;2.17;;;;;;;16.67;100.00;95543.66;5009119;28;24447;-71
2022/06/30 02:26:28;;;;;;;3.08;2.35;;;;;;;16.65;100.00;95543.00;5006359;28;24436;-71
2022/06/30 02:28:54;;;;;;;3.97;2.17;;;;;;;16.57;100.00;95543.66;5006113;28;24506;-71
2022/06/30 02:31:22;;;;;;;3.10;2.13;;;;;;;16.58;100.00;95544.50;5007675;28;24518;-71
2022/06/30 02:33:48;;;;;;;4.22;2.25;;;;;;;16.54;100.00;95548.34;5009884;28;24443;-72
2022/06/30 02:36:15;;;;;;;3.03;1.90;;;;;;;16.48;100.00;95541.88;5014202;28;24435;-71
2022/06/30 02:38:41;;;;;;;4.53;1.75;;;;;;;16.41;100.00;95546.81;5008466;28;24444;-71
2022/06/30 02:41:07;;;;;;;3.30;1.90;;;;;;;16.27;100.00;95547.22;5013682;28;24514;-71
2022/06/30 02:43:34;;;;;;;2.40;1.70;;;;;;;16.06;100.00;95549.16;5013313;28;24510;-70
2022/06/30 02:46:00;;;;;;;3.95;1.90;;;;;;;16.02;100.00;95537.28;5016972;28;24563;-71
2022/06/30 02:48:28;;;;;;;3.27;2.00;;;;;;;16.01;100.00;95543.50;5010296;28;24437;-72
2022/06/30 02:50:54;;;;;;;3.50;2.10;;;;;;;15.98;100.00;95544.56;5012587;28;25003;-71
2022/06/30 02:53:21;;;;;;;3.30;2.10;;;;;;;15.94;100.00;95544.06;5014193;28;24432;-71
2022/06/30 02:55:48;;;;;;;2.33;2.13;;;;;;;16.00;100.00;95544.47;5013023;28;24984;-71
2022/06/30 02:58:15;;;;;;;5.07;2.33;;;;;;;16.07;100.00;95533.34;5003787;28;24444;-71
2022/06/30 03:00:42;;;;;;;2.40;2.00;;;;;;;16.12;100.00;95536.34;5007399;28;24528;-71
2022/06/30 03:03:08;;;;;;;4.50;2.03;;;;;;;15.97;100.00;95533.31;5005941;28;25008;-71
2022/06/30 03:05:36;;;;;;;5.53;2.10;;;;;;;15.72;100.00;95533.81;5013433;28;24432;-71
2022/06/30 03:08:02;;;;;;;4.05;2.33;;;;;;;15.71;100.00;95535.59;5019167;28;24439;-71
2022/06/30 03:10:29;;;;;;;2.47;1.98;;;;;;;15.70;100.00;95533.94;5010405;28;24458;-71
2022/06/30 03:12:55;;;;;;;2.92;2.30;;;;;;;15.67;100.00;95546.44;5018475;28;25026;-71
2022/06/30 03:15:22;;;;;;;4.22;2.40;;;;;;;15.66;100.00;95548.22;5005574;28;24487;-71
2022/06/30 03:17:48;;;;;;;3.28;2.22;;;;;;;15.73;100.00;95545.91;5011622;28;24451;-71
2022/06/30 03:20:14;;;;;;;3.77;1.97;;;;;;;15.80;100.00;95548.81;5011100;28;24445;-72
2022/06/30 03:22:42;;;;;;;3.90;2.22;;;;;;;15.84;100.00;95545.81;5005502;28;24540;-71
2022/06/30 03:25:09;;;;;;;3.70;2.40;;;;;;;15.85;100.00;95546.63;5012835;28;24551;-71
2022/06/30 03:27:35;;;;;;;2.97;2.20;;;;;;;15.86;100.00;95545.66;5016580;28;24437;-71
2022/06/30 03:30:02;;;;;;;2.50;1.80;;;;;;;15.80;100.00;95541.81;5013841;28;24443;-71
2022/06/30 03:32:28;;;;;;;5.53;2.05;;;;;;;15.73;100.00;95544.13;5019594;28;24459;-71
2022/06/30 03:34:55;;;;;;;3.05;2.10;;;;;;;15.69;100.00;95536.72;5013601;28;24973;-71
2022/06/30 03:37:21;;;;;;;3.67;2.15;;;;;;;15.70;100.00;95539.16;5018074;28;24432;-71
2022/06/30 03:39:49;;;;;;;4.35;2.00;;;;;;;15.69;100.00;95545.34;5014791;28;24494;-71
2022/06/30 03:42:16;;;;;;;5.80;2.40;;;;;;;15.69;100.00;95549.75;5003919;28;24452;-72
2022/06/30 03:44:42;;;;;;;3.33;2.50;;;;;;;15.60;100.00;95548.72;5021736;28;24998;-71
2022/06/30 03:47:10;;;;;;;2.55;1.90;;;;;;;15.68;100.00;95543.72;5014529;28;25008;-71
2022/06/30 03:49:36;;;;;;;3.13;2.22;;;;;;;15.78;100.00;95541.13;5013711;28;24522;-71
2022/06/30 03:52:03;;;;;;;3.00;2.30;;;;;;;15.77;100.00;95536.03;5015730;28;24460;-71
2022/06/30 03:54:30;;;;;;;4.63;2.13;;;;;;;15.80;100.00;95533.16;5006508;28;24432;-71
2022/06/30 03:56:58;;;;;;;4.15;1.80;;;;;;;15.93;100.00;95531.94;5013906;28;24459;-71
2022/06/30 03:59:24;;;;;;;5.70;1.80;;;;;;;15.67;100.00;95538.59;5012016;28;24494;-71
2022/06/30 04:01:51;;;;;;;3.17;1.95;;;;;;;15.49;100.00;95535.75;5015410;28;24498;-71
2022/06/30 04:04:17;;;;;;;5.60;2.20;;;;;;;15.39;100.00;95540.16;5015251;28;24440;-71
2022/06/30 04:06:44;;;;;;;2.88;1.95;;;;;;;15.33;100.00;95538.03;5016222;28;24534;-71
2022/06/30 04:09:10;;;;;;;4.15;1.92;;;;;;;15.38;100.00;95541.06;5010892;28;24448;-72
2022/06/30 04:11:37;;;;;;;2.25;1.90;;;;;;;15.38;100.00;95544.50;4999967;28;24468;-72
2022/06/30 04:14:04;;;;;;;2.95;2.08;;;;;;;15.40;100.00;95536.56;5010778;28;24432;-71
2022/06/30 04:16:31;;;;;;;5.35;2.10;;;;;;;15.43;100.00;95541.53;5007586;28;25016;-71
2022/06/30 04:18:57;;;;;;;2.08;1.85;;;;;;;15.50;100.00;95537.44;5009284;28;24440;-71
2022/06/30 04:21:24;;;;;;;3.40;2.40;;;;;;;15.58;100.00;95536.78;5006043;28;24448;-71
2022/06/30 04:23:50;;;;;;;3.88;2.30;;;;;;;15.60;100.00;95532.22;5009177;28;24447;-71
2022/06/30 04:26:16;;;;;;;4.53;2.58;;;;;;;15.65;100.00;95536.16;5011897;28;24498;-72
2022/06/30 04:28:43;;;;;;;4.40;2.40;;;;;;;15.76;100.00;95531.75;5007901;28;24844;-73
2022/06/30 04:33:55;;;;;;;3.40;2.13;;;;;;;16.15;100.00;95530.88;5009707;28;24471;-72
2022/06/30 04:36:21;;;;;;;3.35;2.15;;;;;;;15.96;100.00;95534.28;5012359;28;24448;-72
2022/06/30 04:38:48;;;;;;;4.25;2.40;;;;;;;15.93;100.00;95538.94;5011943;28;24443;-73
2022/06/30 04:41:25;;;;;;;3.05;2.13;;;;;;;16.04;100.00;95538.00;5002928;28;24922;-71
2022/06/30 04:43:52;;;;;;;3.58;2.38;;;;;;;16.27;100.00;95535.97;5007408;28;24944;-72
2022/06/30 04:46:20;;;;;;;3.00;1.98;;;;;;;16.64;100.00;95530.84;5012517;28;25000;-72
2022/06/30 04:48:47;;;;;;;3.60;2.42;;;;;;;16.73;100.00;95531.84;5011907;28;24436;-72
2022/06/30 04:51:13;;;;;;;3.60;2.60;;;;;;;16.61;100.00;95528.50;5018910;28;24866;-71
2022/06/30 04:53:41;;;;;;;2.83;2.50;;;;;;;16.49;100.00;95527.84;5008395;28;24450;-71
2022/06/30 04:56:07;;;;;;;4.55;2.85;;;;;;;16.50;100.00;95537.34;5010785;28;24540;-72
2022/06/30 04:58:34;;;;;;;3.30;2.43;;;;;;;16.59;100.00;95535.69;5011362;28;24443;-74
2022/06/30 05:01:01;;;;;;;6.60;2.40;;;;;;;16.65;100.00;95533.34;5010612;28;24543;-72
2022/06/30 05:03:29;;;;;;;6.30;2.85;;;;;;;16.77;100.00;95523.59;5011016;28;24859;-71
2022/06/30 05:05:56;;;;;;;3.88;2.50;;;;;;;16.95;100.00;95522.88;5010126;28;24486;-72
2022/06/30 05:08:23;;;;;;;4.27;2.57;;;;;;;17.04;100.00;95522.84;5010372;28;25000;-72
2022/06/30 05:10:50;;;;;;;3.67;2.70;;;;;;;17.08;100.00;95520.75;5010154;28;24442;-71
2022/06/30 05:13:16;;;;;;;4.25;2.83;;;;;;;17.00;100.00;95525.88;5015040;28;24443;-71
2022/06/30 05:15:45;;;;;;;3.17;2.28;;;;;;;17.05;100.00;95523.66;5011274;28;24440;-73
2022/06/30 05:18:11;;;;;;;2.80;2.53;;;;;;;17.29;100.00;95518.78;5005977;28;24444;-72
2022/06/30 05:20:39;;;;;;;5.50;3.00;;;;;;;17.64;100.00;95520.66;5011097;28;24794;-72
2022/06/30 05:23:06;;;;;;;3.17;2.65;;;;;;;17.73;100.00;95512.94;5006310;28;24846;-72
2022/06/30 05:28:17;;;;;;;7.68;2.53;;;;;;;17.77;100.00;95509.91;5011911;28;24997;-73
2022/06/30 05:30:43;;;;;;;3.85;2.55;;;;;;;17.66;100.00;95505.66;5011205;28;24445;-74
2022/06/30 05:33:10;;;;;;;9.25;3.05;;;;;;;17.74;100.00;95502.28;5011339;28;24459;-74
2022/06/30 05:35:36;;;;;;;6.10;2.63;;;;;;;17.80;100.00;95503.53;5010198;28;24488;-73
2022/06/30 05:38:04;;;;;;;5.07;2.85;;;;;;;17.78;100.00;95503.69;5011155;28;24440;-73
2022/06/30 05:40:31;;;;;;;4.63;2.80;;;;;;;17.78;100.00;95501.06;5007528;28;24437;-72
2022/06/30 05:42:57;;;;;;;3.03;2.60;;;;;;;17.74;100.00;95498.84;4996773;28;24513;-72
2022/06/30 05:45:24;;;;;;;3.40;2.50;;;;;;;17.71;100.00;95505.19;5009682;28;24455;-73
2022/06/30 05:47:52;;;;;;;3.95;2.65;;;;;;;18.01;100.00;95504.06;5004964;28;24440;-74
2022/06/30 05:50:19;;;;;;;2.83;2.20;;;;;;;18.14;100.00;95501.94;5010219;28;24437;-72
2022/06/30 05:52:47;;;;;;;3.63;2.90;;;;;;;18.00;100.00;95504.25;5010283;28;24460;-72
2022/06/30 05:55:14;;;;;;;3.28;2.55;;;;;;;18.06;100.00;95501.03;5010114;28;24439;-72
2022/06/30 05:57:52;;;;;;;3.80;2.65;;;;;;;18.16;100.00;95500.94;5010275;28;25008;-72
2022/06/30 06:00:19;;;;;;;5.50;2.63;;;;;;;18.44;100.00;95501.69;5011134;28;24438;-74
2022/06/30 06:02:46;;;;;;;4.60;2.58;;;;;;;18.74;100.00;95503.94;5010139;28;24479;-72
2022/06/30 06:05:12;;;;;;;4.45;2.47;;;;;;;18.95;100.00;95500.13;5006403;28;24447;-75
2022/06/30 06:07:39;;;;;;;3.85;2.45;;;;;;;19.00;100.00;95503.13;5009839;28;24448;-74
2022/06/30 06:10:06;;;;;;;5.63;3.10;;;;;;;19.23;100.00;95495.53;5009763;28;24823;-74
2022/06/30 06:12:34;;;;;;;5.38;2.65;;;;;;;19.49;100.00;95504.19;5012548;28;24468;-75
2022/06/30 06:15:01;;;;;;;4.53;3.08;;;;;;;19.77;100.00;95498.78;5014226;28;24448;-73
2022/06/30 06:17:29;;;;;;;4.43;3.13;;;;;;;20.20;100.00;95497.69;5014371;28;24444;-72
2022/06/30 06:19:55;;;;;;;5.47;3.30;;;;;;;20.40;100.00;95500.03;5010185;28;24511;-72
2022/06/30 06:22:22;;;;;;;8.38;3.10;;;;;;;20.58;98.16;95503.38;5013888;28;24435;-72
2022/06/30 06:24:48;;;;;;;12.52;3.55;;;;;;;20.76;96.33;95501.41;5016409;28;24571;-72
2022/06/30 06:27:15;;;;;;;5.32;3.33;;;;;;;20.87;93.35;95502.03;5013966;28;24440;-72
2022/06/30 06:29:42;;;;;;;6.28;3.97;;;;;;;20.69;95.27;95505.66;5013876;28;24444;-71
2022/06/30 06:32:09;;;;;;;4.50;3.50;;;;;;;20.63;94.53;95494.97;5015867;28;24467;-72
2022/06/30 06:34:36;;;;;;;6.28;3.38;;;;;;;20.94;94.72;95506.44;5013468;28;24795;-71
2022/06/30 06:37:03;;;;;;;6.82;3.17;;;;;;;21.27;92.13;95501.13;5012594;28;24456;-75
2022/06/30 06:39:29;;;;;;;6.38;3.50;;;;;;;21.34;92.63;95503.94;5008652;28;24429;-73
2022/06/30 06:41:56;;;;;;;5.72;3.50;;;;;;;21.50;92.13;95504.69;5019093;28;24798;-71
2022/06/30 06:44:22;;;;;;;14.52;3.28;;;;;;;21.24;93.29;95504.91;5012848;28;24436;-71
2022/06/30 06:46:50;;;;;;;9.85;3.70;;;;;;;21.18;93.94;95502.16;5019019;28;24490;-71
2022/06/30 06:49:16;;;;;;;15.15;3.35;;;;;;;21.18;91.60;95505.59;5013431;28;24551;-71
2022/06/30 06:51:43;;;;;;;6.53;2.85;;;;;;;21.22;91.12;95499.00;5012873;28;24463;-72
2022/06/30 06:54:09;;;;;;;5.10;2.90;;;;;;;21.29;91.76;95508.88;5015349;28;24444;-72
2022/06/30 06:56:36;;;;;;;4.40;2.80;;;;;;;21.53;90.84;95498.28;5013392;28;24460;-72
2022/06/30 06:59:02;;;;;;;7.60;3.35;;;;;;;21.50;89.72;95509.97;5017284;28;24447;-72
2022/06/30 07:01:29;;;;;;;6.57;3.20;;;;;;;21.55;90.26;95508.66;5013829;28;24453;-72
2022/06/30 07:03:56;;;;;;;5.88;2.70;;;;;;;21.73;90.23;95504.78;5009730;28;25008;-72
2022/06/30 07:06:23;;;;;;;6.75;2.70;;;;;;;21.99;88.77;95499.22;5013100;28;24431;-71
2022/06/30 07:08:50;;;;;;;4.53;2.70;;;;;;;22.25;87.54;95511.31;5013157;28;24446;-72
2022/06/30 07:11:16;;;;;;;8.02;2.63;;;;;;;22.53;85.21;95510.78;5012850;28;24440;-71
2022/06/30 07:13:43;;;;;;;3.80;2.50;;;;;;;22.76;84.58;95506.28;5015567;28;24503;-72
2022/06/30 07:16:09;;;;;;;5.00;2.53;;;;;;;22.86;83.49;95506.88;5004163;28;24468;-71
2022/06/30 07:18:36;;;;;;;4.53;2.67;;;;;;;23.01;82.80;95499.00;5007043;28;24492;-71
2022/06/30 07:21:03;;;;;;;4.95;2.45;;;;;;;23.38;85.26;95499.97;5012695;28;24452;-70
2022/06/30 07:23:30;;;;;;;5.93;2.60;;;;;;;23.57;81.50;95496.75;5005033;28;24499;-71
2022/06/30 07:25:57;;;;;;;4.53;2.95;;;;;;;23.48;82.61;95500.50;5017698;28;24440;-72
2022/06/30 07:28:24;;;;;;;8.18;3.30;;;;;;;23.49;81.93;95496.84;5011919;28;24456;-72
2022/06/30 07:30:52;;;;;;;5.10;2.90;;;;;;;23.58;83.09;95490.50;5008398;28;24638;-71
2022/06/30 07:33:18;;;;;;;4.70;2.67;;;;;;;23.87;82.74;95488.81;5011569;28;24561;-72
2022/06/30 07:35:45;;;;;;;6.60;2.92;;;;;;;24.47;81.20;95484.19;5017952;28;25245;-71
2022/06/30 07:38:13;;;;;;;8.93;3.20;;;;;;;24.93;80.70;95474.00;5005213;28;24485;-72
2022/06/30 07:40:39;;;;;;;4.22;2.90;;;;;;;25.21;83.44;95475.84;5008029;28;24447;-71
2022/06/30 07:43:06;;;;;;;5.30;3.05;;;;;;;25.06;76.53;95479.38;5011245;28;24436;-72
2022/06/30 07:45:32;;;;;;;6.20;3.17;;;;;;;25.42;78.73;95482.91;5012562;28;24440;-72
2022/06/30 07:47:59;;;;;;;4.75;2.60;;;;;;;25.56;76.33;95479.31;5012124;28;24810;-72
2022/06/30 07:50:25;;;;;;;5.28;3.13;;;;;;;25.14;77.48;95482.94;5013132;28;24495;-72
2022/06/30 07:52:52;;;;;;;7.28;3.15;;;;;;;25.29;77.23;95479.19;5015961;28;24449;-73
2022/06/30 07:55:20;;;;;;;4.90;2.95;;;;;;;25.66;76.98;95479.78;5013188;28;24974;-71
2022/06/30 07:57:48;;;;;;;4.97;2.80;;;;;;;25.75;76.02;95480.44;5002190;28;24519;-72
2022/06/30 08:00:16;;;;;;;8.15;3.28;;;;;;;25.94;74.25;95482.38;5009231;28;24440;-71
2022/06/30 08:02:43;;;;;;;4.93;2.95;;;;;;;25.73;74.55;95485.91;5013592;28;24443;-71
2022/06/30 08:05:10;;;;;;;4.80;2.80;;;;;;;25.79;74.84;95479.84;5011726;28;24459;-73
2022/06/30 08:07:37;;;;;;;6.55;2.85;;;;;;;26.05;72.63;95473.81;5005309;28;24794;-71
2022/06/30 08:10:05;;;;;;;9.20;3.22;;;;;;;25.56;74.27;95481.97;5015512;28;24444;-75
2022/06/30 08:12:34;;;;;;;4.78;2.85;;;;;;;26.11;75.30;95474.88;5025059;23;24473;-73
2022/06/30 08:15:00;;;;;;;4.70;2.63;;;;;;;26.16;71.80;95480.41;5014169;28;24959;-76
2022/06/30 08:17:27;;;;;;;3.47;2.55;;;;;;;26.65;69.57;95481.94;5020135;28;24436;-75
2022/06/30 08:19:54;;;;;;;5.13;2.70;;;;;;;27.03;65.96;95476.00;5012089;28;24440;-75
2022/06/30 08:22:20;;;;;;;4.83;2.70;;;;;;;27.41;65.22;95475.38;5009333;28;25024;-76
2022/06/30 08:24:46;;;;;;;4.47;2.67;;;;;;;27.45;62.39;95473.94;5007766;28;24528;-75
2022/06/30 08:27:13;;;;;;;4.00;2.40;;;;;;;27.65;60.30;95474.69;5012725;28;24440;-76
2022/06/30 08:29:41;;;;;;;6.25;2.38;;;;;;;27.78;59.10;95473.06;5012873;28;24440;-75
2022/06/30 08:32:07;;;;;;;10.88;2.58;;;;;;;27.96;62.35;95470.53;5023378;28;24479;-74
2022/06/30 08:34:34;;;;;;;5.33;2.90;;;;;;;27.94;60.85;95467.25;5018269;28;24797;-74
2022/06/30 08:37:01;;;;;;;5.07;2.60;;;;;;;27.97;60.26;95466.81;5017130;28;24486;-75
2022/06/30 08:42:22;;;;;;;4.40;2.20;;;;;;;27.88;60.36;95462.75;4970889;28;24439;-77
2022/06/30 08:45:13;;;;;;;6.45;2.70;;;;;;;27.90;62.40;95466.03;5021008;28;24543;-76
2022/06/30 08:47:38;;;;;;;5.15;2.60;;;;;;;27.81;57.56;95465.47;5001771;28;24515;-76
2022/06/30 08:50:05;;;;;;;4.38;2.30;;;;;;;27.95;58.00;95475.00;5011686;28;24555;-77
2022/06/30 08:52:32;;;;;;;5.17;1.87;;;;;;;28.06;54.36;95462.88;5019432;28;24469;-76
2022/06/30 08:55:00;;;;;;;4.93;2.37;;;;;;;28.12;55.76;95467.34;5021594;28;24437;-76
2022/06/30 08:57:28;;;;;;;4.78;2.50;;;;;;;28.13;55.51;95466.31;5012452;28;24882;-77
2022/06/30 08:59:56;;;;;;;3.33;1.92;;;;;;;28.18;53.79;95468.34;5015206;28;24443;-77
2022/06/30 09:02:22;;;;;;;2.63;1.73;;;;;;;28.02;52.58;95469.66;5012800;28;24491;-78
2022/06/30 09:04:48;;;;;;;4.13;2.38;;;;;;;28.54;56.89;95462.41;5005117;28;24799;-76
2022/06/30 09:07:15;;;;;;;3.35;1.70;;;;;;;28.49;51.20;95458.78;5010546;28;25004;-77
2022/06/30 09:09:41;;;;;;;6.75;2.10;;;;;;;28.10;53.13;95455.28;5005802;28;24440;-77
2022/06/30 09:12:15;;;;;;;5.80;2.60;;;;;;;28.63;58.72;95458.47;5018156;28;24452;-77
2022/06/30 09:14:43;;;;;;;3.65;2.03;;;;;;;28.33;50.91;95460.06;5005245;28;24462;-77
2022/06/30 09:17:13;;;;;;;4.00;1.92;;;;;;;28.52;52.59;95453.03;5013050;28;24440;-77
2022/06/30 09:19:52;;;;;;;3.90;1.88;;;;;;;28.44;48.16;95448.75;5012771;28;24519;-77
2022/06/30 09:22:19;;;;;;;6.17;1.90;;;;;;;28.56;47.99;95448.88;5017918;28;24463;-77
2022/06/30 09:24:45;;;;;;;5.78;2.22;;;;;;;29.01;48.89;95451.41;5017281;28;24431;-77
2022/06/30 09:27:17;;;;;;;4.73;2.13;;;;;;;28.95;51.55;95450.41;5012284;28;24443;-77
2022/06/30 09:29:52;;;;;;;7.05;2.28;;;;;;;28.64;49.68;95459.28;5015303;28;24436;-77
2022/06/30 09:32:21;;;;;;;5.43;2.45;;;;;;;28.46;53.07;95446.69;5011876;28;24440;-76
2022/06/30 09:34:49;;;;;;;6.82;2.20;;;;;;;28.59;57.49;95443.09;5004574;28;24952;-77
2022/06/30 09:37:19;;;;;;;9.05;2.42;;;;;;;28.54;53.30;95438.44;5012314;28;25083;-76
2022/06/30 09:39:47;;;;;;;4.93;2.38;;;;;;;28.77;49.58;95445.03;5005042;28;24440;-77
2022/06/30 09:42:14;;;;;;;4.65;1.95;;;;;;;29.00;47.80;95439.94;5012361;28;25008;-77
2022/06/30 09:44:41;;;;;;;7.20;2.10;;;;;;;29.06;51.76;95443.56;5011674;28;24484;-76
2022/06/30 09:47:10;;;;;;;5.25;1.95;;;;;;;28.87;49.51;95446.16;5007933;28;24451;-76
2022/06/30 09:49:40;;;;;;;5.78;2.20;;;;;;;28.95;49.83;95443.22;5003655;28;24439;-76
2022/06/30 09:52:16;;;;;;;3.63;2.13;;;;;;;28.91;52.69;95446.53;5017110;28;24440;-78
2022/06/30 09:54:53;;;;;;;5.90;1.90;;;;;;;29.00;47.98;95433.78;5014641;28;24464;-79
2022/06/30 09:57:20;;;;;;;5.55;2.22;;;;;;;28.86;48.73;95438.41;5011449;28;24494;-78
2022/06/30 09:59:47;;;;;;;4.20;2.17;;;;;;;29.02;49.13;95431.72;5009553;28;24992;-79
2022/06/30 10:02:13;;;;;;;3.80;2.25;;;;;;;29.10;47.87;95428.75;5017241;28;24440;-79
2022/06/30 10:04:54;;;;;;;3.92;2.55;;;;;;;29.31;46.28;95430.19;5013837;28;24517;-80
2022/06/30 10:07:22;;;;;;;9.25;2.40;;;;;;;29.38;49.26;95429.09;5010323;28;24471;-80
2022/06/30 10:09:49;;;;;;;5.30;2.08;;;;;;;29.08;45.77;95426.31;5011294;28;24519;-80
2022/06/30 10:12:18;;;;;;;4.30;2.00;;;;;;;29.27;47.71;95437.81;5010863;28;24456;-78
2022/06/30 10:14:45;;;;;;;3.28;1.90;;;;;;;29.24;44.81;95434.78;5021259;28;24469;-78
2022/06/30 10:17:15;;;;;;;3.75;1.80;;;;;;;28.77;47.68;95423.69;5013457;28;24436;-79
2022/06/30 10:19:42;;;;;;;7.90;2.45;;;;;;;28.95;45.85;95419.22;5018560;28;24443;-78
2022/06/30 10:22:10;;;;;;;4.17;1.97;;;;;;;29.20;42.55;95413.06;5012697;28;24532;-79
2022/06/30 10:24:36;;;;;;;3.75;1.90;;;;;;;29.22;45.58;95408.34;5011011;28;24444;-78
2022/06/30 10:27:14;;;;;;;4.10;2.03;;;;;;;29.37;44.80;95414.13;5007423;28;24437;-80
2022/06/30 10:29:45;;;;;;;4.78;2.28;;;;;;;29.37;47.31;95407.97;5011489;28;24432;-80
2022/06/30 10:32:22;;;;;;;3.88;2.30;;;;;;;29.36;45.18;95406.34;5017347;28;24444;-79
2022/06/30 10:34:55;;;;;;;3.80;2.25;;;;;;;29.56;44.88;95409.59;5014929;28;24503;-79
2022/06/30 10:37:31;;;;;;;3.65;2.03;;;;;;;29.70;47.47;95404.13;5011058;28;24476;-80
2022/06/30 10:40:00;;;;;;;4.93;2.30;;;;;;;29.52;48.85;95412.94;5015321;28;24437;-79
2022/06/30 10:42:44;;;;;;;4.65;2.38;;;;;;;29.28;45.48;95409.31;5010523;28;24802;-79
2022/06/30 10:45:50;;;;;;;6.97;2.30;;;;;;;29.39;46.99;95404.03;5013907;28;24436;-79
2022/06/30 10:48:17;;;;;;;6.47;2.30;;;;;;;29.65;44.46;95402.94;5010105;28;24830;-78
2022/06/30 10:50:44;;;;;;;2.90;1.95;;;;;;;29.94;43.74;95410.38;5018541;28;24440;-79
2022/06/30 10:53:17;;;;;;;13.40;2.40;;;;;;;30.08;47.08;95404.66;5014564;28;24460;-80
2022/06/30 10:55:45;;;;;;;5.07;2.00;;;;;;;30.19;49.94;95420.97;5008837;28;25024;-77
2022/06/30 10:58:12;;;;;;;3.58;1.80;;;;;;;29.93;40.86;95409.59;5011891;28;24440;-76
2022/06/30 11:00:50;;;;;;;10.43;2.20;;;;;;;29.86;43.42;95407.00;5013240;28;24432;-76
2022/06/30 11:03:59;;;;;;;3.83;2.05;;;;;;;30.06;42.06;95409.38;5011627;28;24968;-76
2022/06/30 11:07:07;;;;;;;4.93;2.10;;;;;;;29.61;43.12;95400.94;5013368;28;24557;-76
2022/06/30 11:10:18;;;;;;;5.90;2.10;;;;;;;29.37;43.13;95405.31;4998555;28;24464;-76
2022/06/30 11:12:59;;;;;;;6.97;2.10;;;;;;;28.82;42.88;95399.91;5014109;28;24625;-77
2022/06/30 11:15:55;;;;;;;5.80;2.10;;;;;;;29.19;44.75;95390.13;5013977;28;24432;-77
2022/06/30 11:18:22;;;;;;;3.58;1.88;;;;;;;29.33;43.32;95399.59;5005078;28;25191;-75
2022/06/30 11:20:53;;;;;;;2.40;1.80;;;;;;;29.64;41.62;95395.16;5005830;28;25089;-74
2022/06/30 11:23:21;;;;;;;7.07;1.92;;;;;;;29.55;40.42;95385.78;5018877;28;24443;-74
2022/06/30 11:28:35;;;;;;;3.75;2.05;;;;;;;29.86;39.38;95377.63;5014317;28;24428;-75
2022/06/30 11:31:02;;;;;;;3.35;1.98;;;;;;;29.93;39.25;95380.22;5018061;28;24491;-75
2022/06/30 11:33:29;;;;;;;5.95;2.20;;;;;;;30.01;45.46;95379.88;5019846;28;24456;-75
2022/06/30 11:36:07;;;;;;;5.10;2.23;;;;;;;29.38;41.34;95377.59;5016568;28;24444;-75
2022/06/30 11:38:34;;;;;;;4.40;2.00;;;;;;;28.99;41.98;95376.97;5001670;28;25016;-75
2022/06/30 11:43:52;;;;;;;3.65;2.05;;;;;;;28.73;42.34;95370.03;5013313;28;24436;-75
2022/06/30 11:46:19;;;;;;;3.67;2.03;;;;;;;28.93;48.17;95372.53;5017844;28;25036;-75
2022/06/30 11:48:46;;;;;;;4.20;1.87;;;;;;;29.63;43.94;95380.22;5014645;28;24443;-74
2022/06/30 11:51:12;;;;;;;6.20;1.90;;;;;;;29.64;47.21;95369.28;5012097;28;24439;-75
2022/06/30 11:53:41;;;;;;;3.13;1.70;;;;;;;28.98;41.10;95367.34;5011261;28;24457;-75